logo
Search for airport 
image banner adimage banner adimage banner ad
image banner ad

UAII - Shymkent

Located in Shymkent, Kazakhstan

ICAO - UAII, IATA - CIT

Data provided by Airmate  

General information

Coordinates: N42°21'54" E69°28'32"
Elevation is 1387 feet MSL.
Magnetic variation is 6° East
View others Airports in South Kazakhstan

Operational data

Special qualification required
Current time UTC:
Current local time:
Weather
METAR: UAII 130230Z 19005MPS CAVOK 29/13 Q1001 NOSIG RMK QFE716/0955
TAF: TAF UAII 122302Z 1300/1324 15005G10MPS 9999 SCT050CB TX33/1310Z TN20/1301Z TEMPO 1300/1306 22009G14MPS -TSRA BKN040CB TEMPO 1306/1312 28009G16MPS 3100 -TSRA BLDU BKN033CB TEMPO 1312/1318 19005G10MPS TS BKN050CB
View NOTAMs / SUP AIP / TFR affecting this airport [VIEW]
Communications frequencies: [VIEW]

Runways:

RWY identifierQFULength (ft)Width (ft)SurfaceLDA (ft)
10106°10827148CONC10827
28286°10827148CONC10367

Airport contact information

Address: Shymkent Kazakhstan

Satellite view of UAII